sensor_id;sensor_type;location;lat;lon;timestamp;P1;durP1;ratioP1;P2;durP2;ratioP2
908;SDS011;441;51.192;6.788;2023-02-03T00:00:37;17.53;;;16.93;;
908;SDS011;441;51.192;6.788;2023-02-03T00:03:04;16.63;;;16.13;;
908;SDS011;441;51.192;6.788;2023-02-03T00:05:31;17.13;;;16.53;;
908;SDS011;441;51.192;6.788;2023-02-03T00:08:01;16.77;;;16.27;;
908;SDS011;441;51.192;6.788;2023-02-03T00:10:30;16.77;;;16.17;;
908;SDS011;441;51.192;6.788;2023-02-03T00:12:58;16.47;;;15.87;;
908;SDS011;441;51.192;6.788;2023-02-03T00:15:25;16.57;;;15.97;;
908;SDS011;441;51.192;6.788;2023-02-03T00:17:52;16.23;;;15.63;;
908;SDS011;441;51.192;6.788;2023-02-03T00:20:19;16.20;;;15.70;;
908;SDS011;441;51.192;6.788;2023-02-03T00:22:46;16.73;;;16.23;;
908;SDS011;441;51.192;6.788;2023-02-03T00:25:13;16.90;;;16.30;;
908;SDS011;441;51.192;6.788;2023-02-03T00:27:41;16.23;;;15.73;;
908;SDS011;441;51.192;6.788;2023-02-03T00:30:08;17.00;;;16.40;;
908;SDS011;441;51.192;6.788;2023-02-03T00:32:36;16.47;;;15.97;;
908;SDS011;441;51.192;6.788;2023-02-03T00:35:04;17.33;;;16.63;;
908;SDS011;441;51.192;6.788;2023-02-03T00:37:31;17.20;;;16.60;;
908;SDS011;441;51.192;6.788;2023-02-03T00:39:58;16.57;;;16.07;;
908;SDS011;441;51.192;6.788;2023-02-03T00:42:25;16.90;;;16.40;;
908;SDS011;441;51.192;6.788;2023-02-03T00:44:53;16.73;;;16.23;;
908;SDS011;441;51.192;6.788;2023-02-03T00:47:20;16.40;;;15.90;;
908;SDS011;441;51.192;6.788;2023-02-03T00:49:46;16.20;;;15.70;;
908;SDS011;441;51.192;6.788;2023-02-03T00:52:14;16.53;;;16.00;;
908;SDS011;441;51.192;6.788;2023-02-03T00:54:41;16.30;;;15.80;;
908;SDS011;441;51.192;6.788;2023-02-03T00:57:08;17.20;;;16.67;;
908;SDS011;441;51.192;6.788;2023-02-03T00:59:34;15.83;;;15.33;;
908;SDS011;441;51.192;6.788;2023-02-03T01:02:03;16.90;;;16.30;;
908;SDS011;441;51.192;6.788;2023-02-03T01:04:29;16.53;;;15.87;;
908;SDS011;441;51.192;6.788;2023-02-03T01:06:56;16.57;;;16.00;;
908;SDS011;441;51.192;6.788;2023-02-03T01:09:24;16.00;;;15.50;;
908;SDS011;441;51.192;6.788;2023-02-03T01:11:51;16.30;;;15.67;;
908;SDS011;441;51.192;6.788;2023-02-03T01:14:17;15.80;;;15.30;;
908;SDS011;441;51.192;6.788;2023-02-03T01:16:44;16.60;;;16.00;;
908;SDS011;441;51.192;6.788;2023-02-03T01:19:12;16.00;;;15.50;;
908;SDS011;441;51.192;6.788;2023-02-03T01:21:40;15.87;;;15.37;;
908;SDS011;441;51.192;6.788;2023-02-03T01:24:07;15.87;;;15.37;;
908;SDS011;441;51.192;6.788;2023-02-03T01:26:34;15.60;;;15.10;;
908;SDS011;441;51.192;6.788;2023-02-03T01:29:01;15.77;;;15.17;;
908;SDS011;441;51.192;6.788;2023-02-03T01:31:29;15.80;;;15.30;;
908;SDS011;441;51.192;6.788;2023-02-03T01:33:58;17.00;;;16.33;;
908;SDS011;441;51.192;6.788;2023-02-03T01:36:28;15.90;;;15.40;;
908;SDS011;441;51.192;6.788;2023-02-03T01:38:56;18.63;;;17.83;;
908;SDS011;441;51.192;6.788;2023-02-03T01:41:24;15.93;;;15.40;;
908;SDS011;441;51.192;6.788;2023-02-03T01:43:53;16.20;;;15.53;;
908;SDS011;441;51.192;6.788;2023-02-03T01:46:23;16.33;;;15.80;;
908;SDS011;441;51.192;6.788;2023-02-03T01:48:55;16.30;;;15.80;;
908;SDS011;441;51.192;6.788;2023-02-03T01:51:29;16.03;;;15.50;;
908;SDS011;441;51.192;6.788;2023-02-03T01:53:57;15.60;;;15.20;;
908;SDS011;441;51.192;6.788;2023-02-03T01:56:24;16.10;;;15.60;;
908;SDS011;441;51.192;6.788;2023-02-03T01:58:55;15.97;;;15.47;;
908;SDS011;441;51.192;6.788;2023-02-03T02:01:24;16.13;;;15.53;;
908;SDS011;441;51.192;6.788;2023-02-03T02:03:51;15.77;;;15.37;;
908;SDS011;441;51.192;6.788;2023-02-03T02:06:23;16.13;;;15.53;;
908;SDS011;441;51.192;6.788;2023-02-03T02:08:51;16.27;;;15.77;;
908;SDS011;441;51.192;6.788;2023-02-03T02:11:19;15.90;;;15.40;;
908;SDS011;441;51.192;6.788;2023-02-03T02:13:46;16.10;;;15.60;;
908;SDS011;441;51.192;6.788;2023-02-03T02:16:16;16.57;;;16.07;;
908;SDS011;441;51.192;6.788;2023-02-03T02:18:57;15.97;;;15.47;;
908;SDS011;441;51.192;6.788;2023-02-03T02:21:43;16.50;;;16.00;;
908;SDS011;441;51.192;6.788;2023-02-03T02:24:28;16.70;;;16.10;;
908;SDS011;441;51.192;6.788;2023-02-03T02:27:42;15.90;;;15.40;;
908;SDS011;441;51.192;6.788;2023-02-03T02:30:39;16.00;;;15.50;;
908;SDS011;441;51.192;6.788;2023-02-03T02:33:17;15.40;;;14.97;;
908;SDS011;441;51.192;6.788;2023-02-03T02:35:55;16.07;;;15.57;;
908;SDS011;441;51.192;6.788;2023-02-03T02:38:36;15.70;;;15.30;;
908;SDS011;441;51.192;6.788;2023-02-03T02:41:13;15.60;;;15.20;;
908;SDS011;441;51.192;6.788;2023-02-03T02:43:44;16.80;;;16.20;;
908;SDS011;441;51.192;6.788;2023-02-03T02:46:16;15.80;;;15.40;;
908;SDS011;441;51.192;6.788;2023-02-03T02:48:48;15.60;;;15.20;;
908;SDS011;441;51.192;6.788;2023-02-03T02:51:20;16.00;;;15.40;;
908;SDS011;441;51.192;6.788;2023-02-03T02:53:49;15.83;;;15.30;;
908;SDS011;441;51.192;6.788;2023-02-03T02:56:19;15.97;;;15.47;;
908;SDS011;441;51.192;6.788;2023-02-03T02:58:48;16.37;;;15.67;;
908;SDS011;441;51.192;6.788;2023-02-03T03:01:18;15.80;;;15.20;;
908;SDS011;441;51.192;6.788;2023-02-03T03:03:45;15.60;;;15.10;;
908;SDS011;441;51.192;6.788;2023-02-03T03:06:15;15.30;;;14.90;;
908;SDS011;441;51.192;6.788;2023-02-03T03:08:47;15.53;;;15.03;;
908;SDS011;441;51.192;6.788;2023-02-03T03:11:19;15.40;;;14.93;;
908;SDS011;441;51.192;6.788;2023-02-03T03:13:47;15.80;;;15.30;;
908;SDS011;441;51.192;6.788;2023-02-03T03:16:17;15.77;;;15.37;;
908;SDS011;441;51.192;6.788;2023-02-03T03:18:48;15.90;;;15.40;;
908;SDS011;441;51.192;6.788;2023-02-03T03:21:21;15.87;;;15.37;;
908;SDS011;441;51.192;6.788;2023-02-03T03:23:52;15.90;;;15.40;;
908;SDS011;441;51.192;6.788;2023-02-03T03:26:23;15.80;;;15.30;;
908;SDS011;441;51.192;6.788;2023-02-03T03:28:59;15.90;;;15.40;;
908;SDS011;441;51.192;6.788;2023-02-03T03:31:32;15.87;;;15.37;;
908;SDS011;441;51.192;6.788;2023-02-03T03:33:59;15.97;;;15.47;;
908;SDS011;441;51.192;6.788;2023-02-03T03:36:28;15.63;;;15.13;;
908;SDS011;441;51.192;6.788;2023-02-03T03:39:00;15.97;;;15.43;;
908;SDS011;441;51.192;6.788;2023-02-03T03:41:34;15.97;;;15.47;;
908;SDS011;441;51.192;6.788;2023-02-03T03:44:08;15.37;;;14.97;;
908;SDS011;441;51.192;6.788;2023-02-03T03:46:39;15.80;;;15.30;;
908;SDS011;441;51.192;6.788;2023-02-03T03:49:10;16.07;;;15.57;;
908;SDS011;441;51.192;6.788;2023-02-03T03:51:40;15.67;;;15.20;;
908;SDS011;441;51.192;6.788;2023-02-03T03:54:11;15.90;;;15.40;;
908;SDS011;441;51.192;6.788;2023-02-03T03:56:42;15.67;;;15.17;;
908;SDS011;441;51.192;6.788;2023-02-03T03:59:14;15.80;;;15.30;;
908;SDS011;441;51.192;6.788;2023-02-03T04:01:46;15.87;;;15.37;;
908;SDS011;441;51.192;6.788;2023-02-03T04:04:13;15.87;;;15.37;;
908;SDS011;441;51.192;6.788;2023-02-03T04:06:42;16.07;;;15.53;;
908;SDS011;441;51.192;6.788;2023-02-03T04:09:09;15.73;;;15.23;;
908;SDS011;441;51.192;6.788;2023-02-03T04:11:36;16.17;;;15.60;;
908;SDS011;441;51.192;6.788;2023-02-03T04:14:20;16.97;;;16.27;;
908;SDS011;441;51.192;6.788;2023-02-03T04:16:46;16.50;;;15.90;;
908;SDS011;441;51.192;6.788;2023-02-03T04:19:13;16.23;;;15.67;;
908;SDS011;441;51.192;6.788;2023-02-03T04:21:40;15.90;;;15.40;;
908;SDS011;441;51.192;6.788;2023-02-03T04:24:08;16.00;;;15.50;;
908;SDS011;441;51.192;6.788;2023-02-03T04:26:36;15.97;;;15.47;;
908;SDS011;441;51.192;6.788;2023-02-03T04:29:03;16.93;;;16.43;;
908;SDS011;441;51.192;6.788;2023-02-03T04:31:29;15.97;;;15.47;;
908;SDS011;441;51.192;6.788;2023-02-03T04:33:56;15.93;;;15.47;;
908;SDS011;441;51.192;6.788;2023-02-03T04:36:23;15.70;;;15.30;;
908;SDS011;441;51.192;6.788;2023-02-03T04:38:50;16.27;;;15.80;;
908;SDS011;441;51.192;6.788;2023-02-03T04:41:18;16.23;;;15.73;;
908;SDS011;441;51.192;6.788;2023-02-03T04:43:45;16.37;;;15.87;;
908;SDS011;441;51.192;6.788;2023-02-03T04:46:12;16.63;;;16.03;;
908;SDS011;441;51.192;6.788;2023-02-03T04:48:38;16.00;;;15.50;;
908;SDS011;441;51.192;6.788;2023-02-03T04:51:06;16.70;;;16.20;;
908;SDS011;441;51.192;6.788;2023-02-03T04:53:33;16.70;;;16.00;;
908;SDS011;441;51.192;6.788;2023-02-03T04:56:00;17.33;;;16.73;;
908;SDS011;441;51.192;6.788;2023-02-03T04:58:29;16.33;;;15.83;;
908;SDS011;441;51.192;6.788;2023-02-03T05:00:56;16.40;;;15.80;;
908;SDS011;441;51.192;6.788;2023-02-03T05:03:22;17.77;;;17.17;;
908;SDS011;441;51.192;6.788;2023-02-03T05:05:49;17.50;;;16.90;;
908;SDS011;441;51.192;6.788;2023-02-03T05:08:16;17.50;;;16.90;;
908;SDS011;441;51.192;6.788;2023-02-03T05:10:43;17.47;;;16.83;;
908;SDS011;441;51.192;6.788;2023-02-03T05:13:10;17.60;;;16.90;;
908;SDS011;441;51.192;6.788;2023-02-03T05:15:38;18.20;;;17.37;;
908;SDS011;441;51.192;6.788;2023-02-03T05:18:05;17.20;;;16.37;;
908;SDS011;441;51.192;6.788;2023-02-03T05:20:32;18.63;;;17.67;;
908;SDS011;441;51.192;6.788;2023-02-03T05:22:59;18.30;;;17.30;;
908;SDS011;441;51.192;6.788;2023-02-03T05:25:25;17.80;;;17.10;;
908;SDS011;441;51.192;6.788;2023-02-03T05:27:52;17.50;;;16.80;;
908;SDS011;441;51.192;6.788;2023-02-03T05:30:19;17.67;;;17.07;;
908;SDS011;441;51.192;6.788;2023-02-03T05:32:48;16.73;;;16.23;;
908;SDS011;441;51.192;6.788;2023-02-03T05:35:15;18.30;;;17.57;;
908;SDS011;441;51.192;6.788;2023-02-03T05:37:42;17.33;;;16.73;;
908;SDS011;441;51.192;6.788;2023-02-03T05:40:10;17.80;;;17.20;;
908;SDS011;441;51.192;6.788;2023-02-03T05:42:55;17.30;;;16.70;;
908;SDS011;441;51.192;6.788;2023-02-03T05:45:22;17.40;;;16.80;;
908;SDS011;441;51.192;6.788;2023-02-03T05:47:50;18.77;;;17.87;;
908;SDS011;441;51.192;6.788;2023-02-03T05:50:17;17.63;;;16.93;;
908;SDS011;441;51.192;6.788;2023-02-03T05:52:46;18.33;;;17.40;;
908;SDS011;441;51.192;6.788;2023-02-03T05:55:13;20.53;;;18.80;;
908;SDS011;441;51.192;6.788;2023-02-03T05:57:40;11.83;;;11.03;;
908;SDS011;441;51.192;6.788;2023-02-03T06:00:08;12.03;;;10.87;;
908;SDS011;441;51.192;6.788;2023-02-03T06:02:35;14.77;;;11.23;;
908;SDS011;441;51.192;6.788;2023-02-03T06:05:04;13.00;;;12.00;;
908;SDS011;441;51.192;6.788;2023-02-03T06:07:31;11.27;;;10.30;;
908;SDS011;441;51.192;6.788;2023-02-03T06:09:58;11.73;;;10.70;;
908;SDS011;441;51.192;6.788;2023-02-03T06:12:24;12.07;;;9.97;;
908;SDS011;441;51.192;6.788;2023-02-03T06:14:51;13.57;;;11.20;;
908;SDS011;441;51.192;6.788;2023-02-03T06:17:18;11.10;;;10.50;;
908;SDS011;441;51.192;6.788;2023-02-03T06:19:45;10.57;;;10.13;;
908;SDS011;441;51.192;6.788;2023-02-03T06:22:13;11.57;;;10.70;;
908;SDS011;441;51.192;6.788;2023-02-03T06:24:40;10.73;;;10.10;;
908;SDS011;441;51.192;6.788;2023-02-03T06:27:08;12.13;;;10.90;;
908;SDS011;441;51.192;6.788;2023-02-03T06:29:35;10.53;;;10.13;;
908;SDS011;441;51.192;6.788;2023-02-03T06:32:03;11.47;;;10.57;;
908;SDS011;441;51.192;6.788;2023-02-03T06:34:30;10.13;;;9.63;;
908;SDS011;441;51.192;6.788;2023-02-03T06:36:57;11.20;;;10.50;;
908;SDS011;441;51.192;6.788;2023-02-03T06:39:25;11.70;;;10.80;;
908;SDS011;441;51.192;6.788;2023-02-03T06:41:52;10.90;;;10.40;;
908;SDS011;441;51.192;6.788;2023-02-03T06:44:19;10.80;;;10.10;;
908;SDS011;441;51.192;6.788;2023-02-03T06:46:47;11.13;;;10.53;;
908;SDS011;441;51.192;6.788;2023-02-03T06:49:14;10.43;;;9.83;;
908;SDS011;441;51.192;6.788;2023-02-03T06:51:41;10.97;;;10.37;;
908;SDS011;441;51.192;6.788;2023-02-03T06:54:08;10.20;;;9.50;;
908;SDS011;441;51.192;6.788;2023-02-03T06:56:37;10.17;;;9.57;;
908;SDS011;441;51.192;6.788;2023-02-03T06:59:04;10.33;;;9.60;;
908;SDS011;441;51.192;6.788;2023-02-03T07:01:31;10.50;;;9.90;;
908;SDS011;441;51.192;6.788;2023-02-03T07:03:57;10.93;;;10.40;;
908;SDS011;441;51.192;6.788;2023-02-03T07:06:24;10.80;;;10.20;;
908;SDS011;441;51.192;6.788;2023-02-03T07:08:53;10.23;;;9.83;;
908;SDS011;441;51.192;6.788;2023-02-03T07:11:20;11.30;;;10.63;;
908;SDS011;441;51.192;6.788;2023-02-03T07:13:48;10.50;;;10.00;;
908;SDS011;441;51.192;6.788;2023-02-03T07:16:15;10.63;;;10.23;;
908;SDS011;441;51.192;6.788;2023-02-03T07:18:42;11.07;;;10.53;;
908;SDS011;441;51.192;6.788;2023-02-03T07:21:09;10.60;;;10.20;;
908;SDS011;441;51.192;6.788;2023-02-03T07:23:36;10.60;;;10.10;;
908;SDS011;441;51.192;6.788;2023-02-03T07:26:04;11.30;;;10.37;;
908;SDS011;441;51.192;6.788;2023-02-03T07:28:32;10.30;;;9.80;;
908;SDS011;441;51.192;6.788;2023-02-03T07:31:01;10.80;;;10.40;;
908;SDS011;441;51.192;6.788;2023-02-03T07:33:29;10.60;;;10.17;;
908;SDS011;441;51.192;6.788;2023-02-03T07:35:56;10.50;;;10.10;;
908;SDS011;441;51.192;6.788;2023-02-03T07:38:24;10.20;;;9.90;;
908;SDS011;441;51.192;6.788;2023-02-03T07:40:52;11.50;;;10.77;;
908;SDS011;441;51.192;6.788;2023-02-03T07:43:20;10.40;;;10.00;;
908;SDS011;441;51.192;6.788;2023-02-03T07:45:47;10.27;;;9.87;;
908;SDS011;441;51.192;6.788;2023-02-03T07:48:15;9.90;;;9.50;;
908;SDS011;441;51.192;6.788;2023-02-03T07:50:42;10.43;;;9.93;;
908;SDS011;441;51.192;6.788;2023-02-03T07:53:09;10.97;;;10.37;;
908;SDS011;441;51.192;6.788;2023-02-03T07:55:36;10.90;;;10.47;;
908;SDS011;441;51.192;6.788;2023-02-03T07:58:03;10.30;;;9.83;;
908;SDS011;441;51.192;6.788;2023-02-03T08:00:30;9.97;;;9.67;;
908;SDS011;441;51.192;6.788;2023-02-03T08:02:57;10.27;;;9.93;;
908;SDS011;441;51.192;6.788;2023-02-03T08:05:25;10.00;;;9.60;;
908;SDS011;441;51.192;6.788;2023-02-03T08:07:53;9.63;;;9.27;;
908;SDS011;441;51.192;6.788;2023-02-03T08:10:20;9.90;;;9.53;;
908;SDS011;441;51.192;6.788;2023-02-03T08:12:47;9.93;;;9.63;;
908;SDS011;441;51.192;6.788;2023-02-03T08:15:14;11.40;;;10.77;;
908;SDS011;441;51.192;6.788;2023-02-03T08:17:41;10.10;;;9.70;;
908;SDS011;441;51.192;6.788;2023-02-03T08:20:09;10.17;;;9.77;;
908;SDS011;441;51.192;6.788;2023-02-03T08:22:38;10.10;;;9.70;;
908;SDS011;441;51.192;6.788;2023-02-03T08:25:05;10.40;;;9.77;;
908;SDS011;441;51.192;6.788;2023-02-03T08:27:32;9.87;;;9.57;;
908;SDS011;441;51.192;6.788;2023-02-03T08:29:59;9.90;;;9.50;;
908;SDS011;441;51.192;6.788;2023-02-03T08:32:26;9.93;;;9.63;;
908;SDS011;441;51.192;6.788;2023-02-03T08:34:53;9.77;;;9.37;;
908;SDS011;441;51.192;6.788;2023-02-03T08:37:21;9.70;;;9.40;;
908;SDS011;441;51.192;6.788;2023-02-03T08:39:51;10.73;;;10.23;;
908;SDS011;441;51.192;6.788;2023-02-03T08:42:18;9.50;;;9.20;;
908;SDS011;441;51.192;6.788;2023-02-03T08:44:45;9.90;;;9.60;;
908;SDS011;441;51.192;6.788;2023-02-03T08:47:13;10.17;;;9.87;;
908;SDS011;441;51.192;6.788;2023-02-03T08:49:40;9.70;;;9.40;;
908;SDS011;441;51.192;6.788;2023-02-03T08:52:09;9.57;;;9.27;;
908;SDS011;441;51.192;6.788;2023-02-03T08:54:37;9.63;;;9.33;;
908;SDS011;441;51.192;6.788;2023-02-03T08:57:05;9.60;;;9.30;;
908;SDS011;441;51.192;6.788;2023-02-03T08:59:32;10.00;;;9.70;;
908;SDS011;441;51.192;6.788;2023-02-03T09:02:00;9.63;;;9.43;;
908;SDS011;441;51.192;6.788;2023-02-03T09:04:27;9.67;;;9.37;;
908;SDS011;441;51.192;6.788;2023-02-03T09:06:54;10.47;;;10.17;;
908;SDS011;441;51.192;6.788;2023-02-03T09:09:22;11.83;;;11.03;;
908;SDS011;441;51.192;6.788;2023-02-03T09:11:50;10.30;;;10.00;;
908;SDS011;441;51.192;6.788;2023-02-03T09:14:18;10.10;;;9.90;;
908;SDS011;441;51.192;6.788;2023-02-03T09:16:45;9.40;;;9.20;;
908;SDS011;441;51.192;6.788;2023-02-03T09:19:12;10.53;;;10.23;;
908;SDS011;441;51.192;6.788;2023-02-03T09:21:39;9.50;;;9.20;;
908;SDS011;441;51.192;6.788;2023-02-03T09:24:06;9.90;;;9.50;;
908;SDS011;441;51.192;6.788;2023-02-03T09:26:33;9.50;;;9.30;;
908;SDS011;441;51.192;6.788;2023-02-03T09:29:00;9.70;;;9.50;;
908;SDS011;441;51.192;6.788;2023-02-03T09:31:28;11.30;;;10.70;;
908;SDS011;441;51.192;6.788;2023-02-03T09:33:55;10.17;;;9.67;;
908;SDS011;441;51.192;6.788;2023-02-03T09:36:24;10.00;;;9.80;;
908;SDS011;441;51.192;6.788;2023-02-03T09:38:51;10.07;;;9.83;;
908;SDS011;441;51.192;6.788;2023-02-03T09:41:31;9.77;;;9.50;;
908;SDS011;441;51.192;6.788;2023-02-03T09:44:11;9.63;;;9.43;;
908;SDS011;441;51.192;6.788;2023-02-03T09:46:44;10.03;;;9.83;;
908;SDS011;441;51.192;6.788;2023-02-03T09:49:13;10.70;;;10.10;;
908;SDS011;441;51.192;6.788;2023-02-03T09:51:45;11.23;;;10.83;;
908;SDS011;441;51.192;6.788;2023-02-03T09:54:16;10.27;;;9.97;;
908;SDS011;441;51.192;6.788;2023-02-03T09:56:45;10.17;;;9.90;;
908;SDS011;441;51.192;6.788;2023-02-03T09:59:16;10.33;;;10.03;;
908;SDS011;441;51.192;6.788;2023-02-03T10:01:46;9.67;;;9.47;;
908;SDS011;441;51.192;6.788;2023-02-03T10:04:25;10.33;;;10.03;;
908;SDS011;441;51.192;6.788;2023-02-03T10:06:57;9.87;;;9.50;;
908;SDS011;441;51.192;6.788;2023-02-03T10:09:35;9.93;;;9.73;;
908;SDS011;441;51.192;6.788;2023-02-03T10:12:15;10.53;;;10.23;;
908;SDS011;441;51.192;6.788;2023-02-03T10:14:59;9.93;;;9.63;;
908;SDS011;441;51.192;6.788;2023-02-03T10:17:38;10.10;;;9.90;;
908;SDS011;441;51.192;6.788;2023-02-03T10:20:10;10.23;;;10.03;;
908;SDS011;441;51.192;6.788;2023-02-03T10:22:42;11.20;;;10.90;;
908;SDS011;441;51.192;6.788;2023-02-03T10:25:14;12.00;;;11.50;;
908;SDS011;441;51.192;6.788;2023-02-03T10:27:48;10.70;;;10.40;;
908;SDS011;441;51.192;6.788;2023-02-03T10:30:18;10.93;;;10.57;;
908;SDS011;441;51.192;6.788;2023-02-03T10:32:49;10.63;;;10.33;;
908;SDS011;441;51.192;6.788;2023-02-03T10:35:19;10.63;;;10.37;;
908;SDS011;441;51.192;6.788;2023-02-03T10:37:48;10.63;;;10.33;;
908;SDS011;441;51.192;6.788;2023-02-03T10:40:18;10.70;;;10.40;;
908;SDS011;441;51.192;6.788;2023-02-03T10:42:47;10.37;;;10.17;;
908;SDS011;441;51.192;6.788;2023-02-03T10:45:33;10.70;;;10.40;;
908;SDS011;441;51.192;6.788;2023-02-03T10:48:04;10.20;;;10.00;;
908;SDS011;441;51.192;6.788;2023-02-03T10:50:36;11.30;;;11.00;;
908;SDS011;441;51.192;6.788;2023-02-03T10:53:20;11.10;;;10.80;;
908;SDS011;441;51.192;6.788;2023-02-03T10:55:50;10.60;;;10.30;;
908;SDS011;441;51.192;6.788;2023-02-03T10:58:27;10.80;;;10.50;;
908;SDS011;441;51.192;6.788;2023-02-03T11:00:56;10.53;;;10.33;;
908;SDS011;441;51.192;6.788;2023-02-03T11:03:30;10.47;;;10.17;;
908;SDS011;441;51.192;6.788;2023-02-03T11:06:04;10.47;;;10.17;;
908;SDS011;441;51.192;6.788;2023-02-03T11:08:34;11.20;;;10.90;;
908;SDS011;441;51.192;6.788;2023-02-03T11:11:02;10.20;;;9.90;;
908;SDS011;441;51.192;6.788;2023-02-03T11:13:30;10.60;;;10.10;;
908;SDS011;441;51.192;6.788;2023-02-03T11:15:58;10.50;;;10.30;;
908;SDS011;441;51.192;6.788;2023-02-03T11:18:33;10.73;;;10.53;;
908;SDS011;441;51.192;6.788;2023-02-03T11:21:07;11.43;;;11.13;;
908;SDS011;441;51.192;6.788;2023-02-03T11:23:35;10.53;;;10.23;;
908;SDS011;441;51.192;6.788;2023-02-03T11:26:11;10.73;;;10.50;;
908;SDS011;441;51.192;6.788;2023-02-03T11:28:40;10.67;;;10.37;;
908;SDS011;441;51.192;6.788;2023-02-03T11:31:16;10.80;;;10.50;;
908;SDS011;441;51.192;6.788;2023-02-03T11:33:50;10.47;;;10.27;;
908;SDS011;441;51.192;6.788;2023-02-03T11:36:21;10.83;;;10.53;;
908;SDS011;441;51.192;6.788;2023-02-03T11:38:50;10.87;;;10.67;;
908;SDS011;441;51.192;6.788;2023-02-03T11:41:17;10.60;;;10.40;;
908;SDS011;441;51.192;6.788;2023-02-03T11:43:45;11.17;;;10.87;;
908;SDS011;441;51.192;6.788;2023-02-03T11:46:13;11.40;;;11.10;;
908;SDS011;441;51.192;6.788;2023-02-03T11:48:44;10.97;;;10.67;;
908;SDS011;441;51.192;6.788;2023-02-03T11:51:23;10.60;;;10.40;;
908;SDS011;441;51.192;6.788;2023-02-03T11:54:01;10.60;;;10.40;;
908;SDS011;441;51.192;6.788;2023-02-03T11:56:42;10.00;;;9.80;;
908;SDS011;441;51.192;6.788;2023-02-03T11:59:36;10.67;;;10.47;;
908;SDS011;441;51.192;6.788;2023-02-03T12:02:37;11.03;;;10.73;;
908;SDS011;441;51.192;6.788;2023-02-03T12:05:27;10.93;;;10.63;;
908;SDS011;441;51.192;6.788;2023-02-03T12:08:07;11.03;;;10.73;;
908;SDS011;441;51.192;6.788;2023-02-03T12:10:43;10.43;;;10.13;;
908;SDS011;441;51.192;6.788;2023-02-03T12:13:26;10.63;;;10.33;;
908;SDS011;441;51.192;6.788;2023-02-03T12:16:06;11.30;;;11.00;;
908;SDS011;441;51.192;6.788;2023-02-03T12:18:55;10.50;;;10.30;;
908;SDS011;441;51.192;6.788;2023-02-03T12:21:38;10.90;;;10.60;;
908;SDS011;441;51.192;6.788;2023-02-03T12:24:13;10.73;;;10.43;;
908;SDS011;441;51.192;6.788;2023-02-03T12:26:50;11.40;;;11.10;;
908;SDS011;441;51.192;6.788;2023-02-03T12:29:26;10.80;;;10.50;;
908;SDS011;441;51.192;6.788;2023-02-03T12:32:00;10.90;;;10.60;;
908;SDS011;441;51.192;6.788;2023-02-03T12:34:32;11.57;;;11.27;;
908;SDS011;441;51.192;6.788;2023-02-03T12:37:05;11.13;;;10.83;;
908;SDS011;441;51.192;6.788;2023-02-03T12:39:37;10.27;;;9.97;;
908;SDS011;441;51.192;6.788;2023-02-03T12:42:11;11.40;;;11.00;;
908;SDS011;441;51.192;6.788;2023-02-03T12:44:44;10.60;;;10.30;;
908;SDS011;441;51.192;6.788;2023-02-03T12:47:17;10.80;;;10.50;;
908;SDS011;441;51.192;6.788;2023-02-03T12:49:51;11.00;;;10.70;;
908;SDS011;441;51.192;6.788;2023-02-03T12:52:24;11.20;;;10.90;;
908;SDS011;441;51.192;6.788;2023-02-03T12:54:57;11.57;;;11.27;;
908;SDS011;441;51.192;6.788;2023-02-03T12:57:32;11.60;;;11.30;;
908;SDS011;441;51.192;6.788;2023-02-03T13:00:09;10.80;;;10.50;;
908;SDS011;441;51.192;6.788;2023-02-03T13:02:50;11.20;;;10.90;;
908;SDS011;441;51.192;6.788;2023-02-03T13:05:26;11.67;;;11.37;;
908;SDS011;441;51.192;6.788;2023-02-03T13:08:00;10.67;;;10.47;;
908;SDS011;441;51.192;6.788;2023-02-03T13:10:36;10.70;;;10.40;;
908;SDS011;441;51.192;6.788;2023-02-03T13:13:08;10.97;;;10.67;;
908;SDS011;441;51.192;6.788;2023-02-03T13:15:40;10.10;;;9.90;;
908;SDS011;441;51.192;6.788;2023-02-03T13:18:12;10.90;;;10.60;;
908;SDS011;441;51.192;6.788;2023-02-03T13:20:50;10.40;;;10.10;;
908;SDS011;441;51.192;6.788;2023-02-03T13:23:19;11.37;;;11.10;;
908;SDS011;441;51.192;6.788;2023-02-03T13:25:53;9.97;;;9.70;;
908;SDS011;441;51.192;6.788;2023-02-03T13:28:44;10.87;;;10.67;;
908;SDS011;441;51.192;6.788;2023-02-03T13:31:32;10.93;;;10.63;;
908;SDS011;441;51.192;6.788;2023-02-03T13:40:06;11.00;;;10.70;;
908;SDS011;441;51.192;6.788;2023-02-03T13:42:41;11.73;;;11.33;;
908;SDS011;441;51.192;6.788;2023-02-03T13:45:12;11.43;;;11.03;;
908;SDS011;441;51.192;6.788;2023-02-03T13:47:45;10.87;;;10.53;;
908;SDS011;441;51.192;6.788;2023-02-03T13:50:16;11.20;;;10.90;;
908;SDS011;441;51.192;6.788;2023-02-03T13:52:52;10.80;;;10.50;;
908;SDS011;441;51.192;6.788;2023-02-03T13:55:32;11.10;;;10.80;;
908;SDS011;441;51.192;6.788;2023-02-03T13:58:02;10.70;;;10.40;;
908;SDS011;441;51.192;6.788;2023-02-03T14:03:40;11.20;;;10.90;;
908;SDS011;441;51.192;6.788;2023-02-03T14:09:33;10.90;;;10.60;;
908;SDS011;441;51.192;6.788;2023-02-03T14:12:16;10.80;;;10.53;;
908;SDS011;441;51.192;6.788;2023-02-03T14:14:56;10.43;;;10.13;;
908;SDS011;441;51.192;6.788;2023-02-03T14:20:38;10.20;;;10.00;;
908;SDS011;441;51.192;6.788;2023-02-03T14:23:09;10.80;;;10.50;;
908;SDS011;441;51.192;6.788;2023-02-03T14:25:41;10.93;;;10.63;;
908;SDS011;441;51.192;6.788;2023-02-03T14:28:12;11.10;;;10.70;;
908;SDS011;441;51.192;6.788;2023-02-03T14:31:01;10.97;;;10.67;;
908;SDS011;441;51.192;6.788;2023-02-03T14:36:35;12.30;;;12.00;;
908;SDS011;441;51.192;6.788;2023-02-03T14:42:12;11.90;;;11.60;;
908;SDS011;441;51.192;6.788;2023-02-03T14:44:52;13.10;;;12.70;;
908;SDS011;441;51.192;6.788;2023-02-03T14:47:33;11.73;;;11.43;;
908;SDS011;441;51.192;6.788;2023-02-03T14:50:19;12.70;;;12.20;;
908;SDS011;441;51.192;6.788;2023-02-03T14:52:59;12.07;;;11.77;;
908;SDS011;441;51.192;6.788;2023-02-03T14:55:43;11.73;;;11.33;;
908;SDS011;441;51.192;6.788;2023-02-03T14:58:19;12.47;;;12.17;;
908;SDS011;441;51.192;6.788;2023-02-03T15:00:54;12.27;;;11.97;;
908;SDS011;441;51.192;6.788;2023-02-03T15:03:22;12.25;;;11.95;;
908;SDS011;441;51.192;6.788;2023-02-03T15:05:52;12.13;;;11.83;;
908;SDS011;441;51.192;6.788;2023-02-03T15:13:56;12.23;;;11.87;;
908;SDS011;441;51.192;6.788;2023-02-03T15:16:41;12.37;;;11.97;;
908;SDS011;441;51.192;6.788;2023-02-03T15:19:14;11.87;;;11.57;;
908;SDS011;441;51.192;6.788;2023-02-03T15:21:42;11.57;;;11.27;;
908;SDS011;441;51.192;6.788;2023-02-03T15:24:11;11.00;;;10.70;;
908;SDS011;441;51.192;6.788;2023-02-03T15:26:43;11.83;;;11.43;;
908;SDS011;441;51.192;6.788;2023-02-03T15:29:17;11.87;;;11.53;;
908;SDS011;441;51.192;6.788;2023-02-03T15:31:47;11.80;;;11.47;;
908;SDS011;441;51.192;6.788;2023-02-03T15:34:20;12.00;;;11.50;;
908;SDS011;441;51.192;6.788;2023-02-03T15:36:53;11.70;;;11.40;;
908;SDS011;441;51.192;6.788;2023-02-03T15:39:24;12.10;;;11.60;;
908;SDS011;441;51.192;6.788;2023-02-03T15:42:00;11.43;;;11.13;;
908;SDS011;441;51.192;6.788;2023-02-03T15:44:31;12.67;;;12.33;;
908;SDS011;441;51.192;6.788;2023-02-03T15:47:01;11.87;;;11.57;;
908;SDS011;441;51.192;6.788;2023-02-03T15:49:41;11.60;;;11.20;;
908;SDS011;441;51.192;6.788;2023-02-03T15:52:09;11.50;;;11.20;;
908;SDS011;441;51.192;6.788;2023-02-03T15:54:42;13.10;;;12.70;;
908;SDS011;441;51.192;6.788;2023-02-03T15:57:18;11.77;;;11.37;;
908;SDS011;441;51.192;6.788;2023-02-03T15:59:49;10.83;;;10.53;;
908;SDS011;441;51.192;6.788;2023-02-03T16:02:24;11.10;;;10.70;;
908;SDS011;441;51.192;6.788;2023-02-03T16:04:53;10.83;;;10.43;;
908;SDS011;441;51.192;6.788;2023-02-03T16:07:21;11.20;;;10.90;;
908;SDS011;441;51.192;6.788;2023-02-03T16:09:50;10.10;;;9.80;;